KLM448 EHAM-WSSS
Flight info
| Callsign | KLM448 |
|---|---|
| Flight time | N/A |
| Altitude | 29000 |
| Route | ARNEM L620 HMM DCT NOMKA L620 OMELO DCT ODLIV DCT OMIFU DCT DEMOP DCT DINRO N743 UDROS UM859 KARDE DCT FALAZ DCT ZERGE DCT ROLIN N644 ODILI DCT BARAD M747 SUBUT T923 ERLEV M11 RODAR A909 BIBIM B450 MAMED B449 RANAH L750 ZB G202 RK P628 IBANI L510 GIVAL P628 VPL Y503 RINBA Y507 MAKNA Y511 TOPOR A464 ARAMA DCT TEBUN TEBUN1A |
| Aircraft | B77L/H-SDE1E2E3FGHIJ2J3J4J5M1RWXY/LB1D1 |
Departure
| Time | 2026-04-18 08:11 |
|---|---|
| Airport | Amsterdam Airport Schiphol (EHAM) |
Arrival
| Time | N/A |
|---|---|
| Airport | Singapore Changi Airport (WSSS) |
| Time | Latitude | Longitude | Altitude | Speed | Heading |
|---|---|---|---|---|---|
| 2026-04-18 08:08 | 52.31157 | 4.75607 | 7 ft | 0 kts | 88° |
| 2026-04-18 08:10 | 52.30424 | 4.77660 | 31 ft | 0 kts | 238° |
| 2026-04-18 08:10 | 52.30416 | 4.77640 | 29 ft | 19 kts | 237° |
| 2026-04-18 08:11 | 52.30185 | 4.77052 | 22 ft | 101 kts | 238° |
| 2026-04-18 08:11 | 52.29689 | 4.75744 | 51 ft | 162 kts | 238° |
| 2026-04-18 08:11 | 52.29050 | 4.74025 | 582 ft | 189 kts | 241° |
| 2026-04-18 08:11 | 52.28882 | 4.71868 | 1111 ft | 205 kts | 284° |
| 2026-04-18 08:12 | 52.29776 | 4.70071 | 1680 ft | 216 kts | 327° |
| 2026-04-18 08:12 | 52.31270 | 4.69623 | 2197 ft | 229 kts | 357° |
| 2026-04-18 08:12 | 52.30520 | 4.77587 | 25 ft | 0 kts | 185° |
| 2026-04-18 08:12 | 52.30424 | 4.77660 | 30 ft | 0 kts | 238° |
| 2026-04-18 08:13 | 52.30310 | 4.77364 | 24 ft | 71 kts | 238° |
| 2026-04-18 08:13 | 52.29910 | 4.76309 | 23 ft | 143 kts | 238° |
| 2026-04-18 08:14 | 52.29313 | 4.74716 | 286 ft | 181 kts | 239° |
| 2026-04-18 08:14 | 52.28710 | 4.72864 | 1208 ft | 183 kts | 244° |
| 2026-04-18 08:14 | 52.27959 | 4.70959 | 1454 ft | 218 kts | 232° |
| 2026-04-18 08:14 | 52.26644 | 4.69609 | 2193 ft | 233 kts | 201° |
| 2026-04-18 08:15 | 52.25008 | 4.69530 | 3234 ft | 243 kts | 170° |
| 2026-04-18 08:15 | 52.23725 | 4.70341 | 3969 ft | 250 kts | 158° |
| 2026-04-18 08:15 | 52.22405 | 4.72230 | 4896 ft | 265 kts | 128° |
| 2026-04-18 08:15 | 52.21464 | 4.74828 | 6066 ft | 268 kts | 123° |
| 2026-04-18 08:16 | 52.20538 | 4.77485 | 7159 ft | 272 kts | 123° |
| 2026-04-18 08:16 | 52.19584 | 4.80170 | 8206 ft | 276 kts | 124° |
| 2026-04-18 08:16 | 52.18601 | 4.82898 | 9244 ft | 281 kts | 124° |
| 2026-04-18 08:16 | 52.17689 | 4.85788 | 9900 ft | 292 kts | 108° |
| 2026-04-18 08:17 | 52.17565 | 4.89119 | 10003 ft | 301 kts | 79° |
| 2026-04-18 08:17 | 52.18140 | 4.92373 | 10002 ft | 297 kts | 73° |
| 2026-04-18 08:17 | 52.18759 | 4.95566 | 9993 ft | 295 kts | 73° |
| 2026-04-18 08:17 | 52.19368 | 4.98733 | 9995 ft | 296 kts | 73° |
| 2026-04-18 08:18 | 52.19970 | 5.01946 | 9996 ft | 296 kts | 74° |
| 2026-04-18 08:18 | 52.20572 | 5.05165 | 9995 ft | 296 kts | 73° |
| 2026-04-18 08:18 | 52.21176 | 5.08376 | 9998 ft | 296 kts | 73° |
| 2026-04-18 08:18 | 52.21781 | 5.11597 | 9997 ft | 296 kts | 73° |
| 2026-04-18 08:19 | 52.22381 | 5.14805 | 10013 ft | 296 kts | 74° |
| 2026-04-18 08:19 | 52.22985 | 5.18035 | 9997 ft | 296 kts | 74° |
| 2026-04-18 08:19 | 52.23578 | 5.21215 | 9999 ft | 296 kts | 74° |
| 2026-04-18 08:19 | 52.24173 | 5.24442 | 10000 ft | 296 kts | 76° |
| 2026-04-18 08:20 | 52.24296 | 5.27741 | 10025 ft | 292 kts | 100° |
| 2026-04-18 08:20 | 52.24099 | 5.31056 | 10013 ft | 294 kts | 95° |
| 2026-04-18 08:20 | 52.23981 | 5.34387 | 10009 ft | 294 kts | 96° |
| 2026-04-18 08:20 | 52.23828 | 5.37705 | 10018 ft | 293 kts | 97° |
| 2026-04-18 08:21 | 52.23648 | 5.41015 | 10015 ft | 294 kts | 97° |
| 2026-04-18 08:21 | 52.23472 | 5.44343 | 10008 ft | 292 kts | 97° |
| 2026-04-18 08:21 | 52.23309 | 5.47607 | 10010 ft | 290 kts | 96° |
| 2026-04-18 08:21 | 52.23143 | 5.50888 | 10012 ft | 289 kts | 96° |
| 2026-04-18 08:22 | 52.22764 | 5.54077 | 10008 ft | 286 kts | 115° |
| 2026-04-18 08:22 | 52.21989 | 5.57069 | 10015 ft | 287 kts | 114° |
| 2026-04-18 08:22 | 52.21291 | 5.60071 | 10015 ft | 286 kts | 113° |
| 2026-04-18 08:22 | 52.20575 | 5.63099 | 10012 ft | 286 kts | 114° |
| 2026-04-18 08:23 | 52.19837 | 5.66115 | 10014 ft | 286 kts | 114° |
| 2026-04-18 08:23 | 52.19096 | 5.69139 | 10014 ft | 287 kts | 114° |
| 2026-04-18 08:23 | 52.18363 | 5.72149 | 10008 ft | 286 kts | 114° |
| 2026-04-18 08:23 | 52.17628 | 5.75175 | 10010 ft | 286 kts | 114° |
| 2026-04-18 08:24 | 52.16890 | 5.78199 | 10007 ft | 287 kts | 114° |
| 2026-04-18 08:24 | 52.16147 | 5.81235 | 10004 ft | 287 kts | 114° |
| 2026-04-18 08:24 | 52.15409 | 5.84249 | 10003 ft | 287 kts | 114° |
| 2026-04-18 08:24 | 52.14671 | 5.87263 | 10007 ft | 286 kts | 114° |
| 2026-04-18 08:25 | 52.13933 | 5.90270 | 10006 ft | 286 kts | 114° |
| 2026-04-18 08:25 | 52.13198 | 5.93251 | 9994 ft | 288 kts | 113° |
| 2026-04-18 08:25 | 52.12455 | 5.96277 | 9995 ft | 288 kts | 113° |
| 2026-04-18 08:25 | 52.11707 | 5.99314 | 9996 ft | 288 kts | 113° |
| 2026-04-18 08:26 | 52.10959 | 6.02344 | 9998 ft | 288 kts | 113° |
| 2026-04-18 08:26 | 52.10209 | 6.05378 | 10000 ft | 288 kts | 114° |
| 2026-04-18 08:26 | 52.09535 | 6.08401 | 9992 ft | 289 kts | 104° |
| 2026-04-18 08:26 | 52.09141 | 6.11607 | 10000 ft | 289 kts | 104° |
| 2026-04-18 08:27 | 52.08662 | 6.14783 | 9997 ft | 289 kts | 105° |
| 2026-04-18 08:27 | 52.08195 | 6.17957 | 10003 ft | 289 kts | 104° |
| 2026-04-18 08:27 | 52.07755 | 6.21137 | 9998 ft | 288 kts | 104° |
| 2026-04-18 08:27 | 52.07316 | 6.24325 | 10002 ft | 289 kts | 104° |
| 2026-04-18 08:28 | 52.06866 | 6.27508 | 10001 ft | 289 kts | 104° |
| 2026-04-18 08:28 | 52.06415 | 6.30686 | 10001 ft | 288 kts | 104° |
| 2026-04-18 08:28 | 52.05966 | 6.33861 | 10001 ft | 288 kts | 104° |
| 2026-04-18 08:28 | 52.05514 | 6.37050 | 10005 ft | 288 kts | 104° |
| 2026-04-18 08:29 | 52.05062 | 6.40229 | 10002 ft | 290 kts | 104° |
| 2026-04-18 08:29 | 52.04614 | 6.43382 | 10001 ft | 289 kts | 104° |
| 2026-04-18 08:29 | 52.04160 | 6.46569 | 10006 ft | 290 kts | 104° |
| 2026-04-18 08:29 | 52.03704 | 6.49756 | 10005 ft | 289 kts | 104° |
| 2026-04-18 08:30 | 52.03247 | 6.52942 | 10004 ft | 290 kts | 104° |
| 2026-04-18 08:30 | 52.02790 | 6.56128 | 10006 ft | 290 kts | 104° |
| 2026-04-18 08:30 | 52.02332 | 6.59314 | 10007 ft | 289 kts | 104° |
| 2026-04-18 08:30 | 52.01871 | 6.62509 | 10007 ft | 290 kts | 104° |
| 2026-04-18 08:31 | 52.01411 | 6.65694 | 10008 ft | 290 kts | 104° |
| 2026-04-18 08:31 | 52.00949 | 6.68886 | 10006 ft | 290 kts | 104° |
| 2026-04-18 08:31 | 52.00487 | 6.72070 | 10004 ft | 290 kts | 104° |
| 2026-04-18 08:31 | 52.00031 | 6.75208 | 10011 ft | 290 kts | 104° |
| 2026-04-18 08:32 | 51.99568 | 6.78388 | 10007 ft | 289 kts | 104° |
| 2026-04-18 08:32 | 51.99104 | 6.81569 | 10008 ft | 289 kts | 104° |
| 2026-04-18 08:32 | 51.98639 | 6.84747 | 10006 ft | 289 kts | 104° |
| 2026-04-18 08:32 | 51.98174 | 6.87921 | 10012 ft | 287 kts | 104° |
| 2026-04-18 08:33 | 51.97708 | 6.91087 | 10006 ft | 288 kts | 104° |
| 2026-04-18 08:33 | 51.97245 | 6.94244 | 10006 ft | 287 kts | 104° |
| 2026-04-18 08:33 | 51.96780 | 6.97398 | 10006 ft | 288 kts | 104° |
| 2026-04-18 08:33 | 51.96319 | 7.00515 | 10006 ft | 288 kts | 104° |
| 2026-04-18 08:34 | 51.95853 | 7.03665 | 10007 ft | 288 kts | 104° |
| 2026-04-18 08:34 | 51.95384 | 7.06828 | 10005 ft | 287 kts | 104° |
| 2026-04-18 08:34 | 51.94916 | 7.09976 | 10008 ft | 287 kts | 104° |
| 2026-04-18 08:34 | 51.94446 | 7.13133 | 10005 ft | 288 kts | 104° |
| 2026-04-18 08:35 | 51.93976 | 7.16280 | 10006 ft | 287 kts | 104° |
| 2026-04-18 08:35 | 51.93504 | 7.19435 | 10007 ft | 287 kts | 104° |
| 2026-04-18 08:35 | 51.93033 | 7.22583 | 10010 ft | 287 kts | 104° |
| 2026-04-18 08:35 | 51.92560 | 7.25728 | 10003 ft | 287 kts | 104° |
| 2026-04-18 08:36 | 51.92088 | 7.28871 | 9998 ft | 287 kts | 104° |
| 2026-04-18 08:36 | 51.91613 | 7.32022 | 10000 ft | 287 kts | 104° |
| 2026-04-18 08:36 | 51.91138 | 7.35169 | 9999 ft | 289 kts | 104° |
| 2026-04-18 08:36 | 51.90665 | 7.38295 | 9999 ft | 291 kts | 104° |
| 2026-04-18 08:37 | 51.90155 | 7.41651 | 10022 ft | 326 kts | 104° |
| 2026-04-18 08:37 | 51.89581 | 7.45423 | 10029 ft | 361 kts | 104° |
| 2026-04-18 08:37 | 51.88968 | 7.49456 | 10033 ft | 382 kts | 104° |
| 2026-04-18 08:37 | 51.88313 | 7.53747 | 10027 ft | 396 kts | 104° |
| 2026-04-18 08:38 | 51.87643 | 7.58118 | 10023 ft | 402 kts | 104° |
| 2026-04-18 08:38 | 51.86974 | 7.62486 | 10018 ft | 402 kts | 104° |
| 2026-04-18 08:38 | 51.86297 | 7.66881 | 10016 ft | 400 kts | 104° |
| 2026-04-18 08:38 | 51.85633 | 7.71268 | 10347 ft | 403 kts | 102° |
| 2026-04-18 08:39 | 51.85118 | 7.75703 | 11558 ft | 397 kts | 103° |
| 2026-04-18 08:39 | 51.84473 | 7.80027 | 12846 ft | 397 kts | 104° |
| 2026-04-18 08:39 | 51.83827 | 7.84439 | 13615 ft | 409 kts | 103° |
| 2026-04-18 08:39 | 51.83237 | 7.88984 | 14424 ft | 417 kts | 103° |
| 2026-04-18 08:40 | 51.82640 | 7.93615 | 15210 ft | 423 kts | 103° |
| 2026-04-18 08:40 | 51.82007 | 7.98244 | 15993 ft | 429 kts | 104° |
| 2026-04-18 08:40 | 51.81346 | 8.02980 | 16759 ft | 436 kts | 104° |
| 2026-04-18 08:40 | 51.80687 | 8.07802 | 17526 ft | 442 kts | 103° |
| 2026-04-18 08:41 | 51.80027 | 8.12682 | 18268 ft | 448 kts | 104° |
| 2026-04-18 08:41 | 51.79801 | 8.14342 | 18517 ft | 450 kts | 104° |